createdAt,value
2018-09-06T00:00:08.090Z,9.30
2018-09-06T00:01:08.242Z,8.80
2018-09-06T00:02:08.397Z,10.00
2018-09-06T00:03:08.554Z,10.10
2018-09-06T00:04:08.707Z,9.50
2018-09-06T00:05:08.862Z,9.50
2018-09-06T00:06:09.015Z,10.10
2018-09-06T00:07:09.170Z,10.30
2018-09-06T00:08:09.327Z,9.80
2018-09-06T00:09:09.479Z,9.90
2018-09-06T00:10:09.635Z,9.40
2018-09-06T00:11:09.788Z,9.30
2018-09-06T00:12:09.941Z,9.30
2018-09-06T00:13:10.094Z,8.60
2018-09-06T00:14:10.249Z,9.10
2018-09-06T00:15:10.405Z,9.40
2018-09-06T00:16:10.558Z,9.20
2018-09-06T00:17:10.718Z,9.00
2018-09-06T00:18:10.870Z,9.90
2018-09-06T00:19:11.027Z,9.00
2018-09-06T00:20:11.186Z,9.30
2018-09-06T00:21:11.334Z,8.30
2018-09-06T00:22:11.490Z,8.50
2018-09-06T00:23:11.644Z,8.40
2018-09-06T00:24:11.798Z,8.50
2018-09-06T00:25:11.953Z,8.30
2018-09-06T00:26:12.107Z,8.20
2018-09-06T00:27:12.261Z,8.50
2018-09-06T00:28:12.412Z,8.90
2018-09-06T00:29:12.567Z,9.00
2018-09-06T00:30:12.722Z,8.20
2018-09-06T00:31:12.875Z,8.70
2018-09-06T00:32:13.029Z,8.20
2018-09-06T00:33:13.183Z,9.00
2018-09-06T00:34:13.336Z,9.20
2018-09-06T00:35:13.492Z,9.30
2018-09-06T00:36:13.644Z,9.30
2018-09-06T00:37:13.799Z,9.10
2018-09-06T00:38:13.950Z,8.90
2018-09-06T00:39:14.105Z,8.70
2018-09-06T00:40:14.256Z,8.40
2018-09-06T00:41:14.412Z,8.30
2018-09-06T00:42:14.567Z,8.40
2018-09-06T00:43:14.718Z,8.30
2018-09-06T00:44:14.873Z,8.90
2018-09-06T00:45:15.028Z,8.20
2018-09-06T00:46:15.179Z,8.60
2018-09-06T00:47:15.333Z,8.30
2018-09-06T00:48:15.484Z,8.40
2018-09-06T00:49:15.639Z,8.20
2018-09-06T00:50:15.793Z,7.80
2018-09-06T00:51:15.949Z,7.60
2018-09-06T00:52:16.098Z,7.80
2018-09-06T00:53:16.250Z,8.20
2018-09-06T00:54:16.403Z,8.20
2018-09-06T00:55:16.559Z,7.50
2018-09-06T00:56:16.713Z,8.50
2018-09-06T00:57:16.867Z,8.20
2018-09-06T00:58:17.017Z,8.50
2018-09-06T00:59:17.171Z,7.80
2018-09-06T01:00:17.325Z,9.20
2018-09-06T01:01:17.477Z,8.00
2018-09-06T01:02:17.633Z,8.10
2018-09-06T01:03:17.788Z,8.70
2018-09-06T01:04:17.940Z,8.70
2018-09-06T01:05:18.094Z,8.60
2018-09-06T01:06:18.246Z,9.00
2018-09-06T01:07:18.401Z,8.40
2018-09-06T01:08:18.557Z,8.60
2018-09-06T01:09:18.710Z,8.80
2018-09-06T01:10:18.859Z,8.40
2018-09-06T01:11:19.014Z,8.70
2018-09-06T01:12:19.165Z,8.90
2018-09-06T01:13:19.316Z,9.30
2018-09-06T01:14:19.472Z,9.10
2018-09-06T01:15:19.627Z,9.10
2018-09-06T01:16:19.776Z,8.80
2018-09-06T01:17:19.931Z,8.80
2018-09-06T01:18:20.085Z,9.50
2018-09-06T01:19:20.239Z,8.50
2018-09-06T01:20:20.391Z,9.10
2018-09-06T01:21:20.544Z,8.90
2018-09-06T01:22:20.697Z,8.40
2018-09-06T01:23:20.849Z,8.70
2018-09-06T01:24:21.001Z,8.60
2018-09-06T01:25:21.154Z,7.70
2018-09-06T01:26:21.309Z,8.40
2018-09-06T01:27:21.464Z,8.60
2018-09-06T01:28:21.617Z,8.60
2018-09-06T01:29:21.769Z,8.40
2018-09-06T01:30:21.923Z,8.10
2018-09-06T01:31:22.076Z,8.40
2018-09-06T01:32:22.230Z,7.40
2018-09-06T01:33:22.385Z,8.80
2018-09-06T01:34:22.537Z,8.60
2018-09-06T01:35:22.693Z,8.30
2018-09-06T01:36:22.843Z,8.50
2018-09-06T01:37:22.997Z,8.30
2018-09-06T01:38:23.154Z,8.50
2018-09-06T01:39:23.305Z,8.10
2018-09-06T01:40:23.456Z,8.40
2018-09-06T01:41:23.609Z,8.60
2018-09-06T01:42:23.763Z,8.20
2018-09-06T01:43:23.916Z,8.10
2018-09-06T01:44:24.071Z,8.40
2018-09-06T01:45:24.223Z,8.30
2018-09-06T01:46:24.376Z,8.50
2018-09-06T01:47:24.528Z,8.80
2018-09-06T01:48:24.683Z,9.30
2018-09-06T01:49:24.837Z,9.00
2018-09-06T01:50:24.990Z,8.80
2018-09-06T01:51:25.144Z,8.90
2018-09-06T01:52:25.297Z,9.60
2018-09-06T01:53:25.451Z,8.80
2018-09-06T01:54:25.601Z,9.50
2018-09-06T01:55:25.756Z,8.60
2018-09-06T01:56:25.907Z,9.40
2018-09-06T01:57:26.061Z,9.10
2018-09-06T01:58:26.220Z,9.10
2018-09-06T01:59:26.365Z,8.80
2018-09-06T02:00:26.520Z,9.30
2018-09-06T02:01:26.672Z,8.90
2018-09-06T02:02:26.823Z,8.40
2018-09-06T02:03:26.978Z,9.20
2018-09-06T02:04:27.132Z,9.70
2018-09-06T02:05:27.285Z,9.00
2018-09-06T02:06:27.438Z,9.30
2018-09-06T02:07:27.590Z,8.90
2018-09-06T02:08:27.746Z,8.30
2018-09-06T02:09:27.900Z,8.40
2018-09-06T02:10:28.051Z,8.50
2018-09-06T02:11:28.206Z,8.20
2018-09-06T02:12:28.360Z,8.40
2018-09-06T02:13:28.513Z,8.60
2018-09-06T02:14:28.665Z,8.50
2018-09-06T02:15:28.819Z,8.00
2018-09-06T02:16:28.971Z,8.60
2018-09-06T02:17:29.128Z,7.80
2018-09-06T02:18:29.279Z,8.20
2018-09-06T02:19:29.433Z,8.30
2018-09-06T02:20:29.591Z,8.50
2018-09-06T02:21:29.741Z,8.60
2018-09-06T02:22:29.891Z,7.80
2018-09-06T02:23:30.046Z,8.30
2018-09-06T02:24:30.265Z,8.10
2018-09-06T02:25:30.351Z,8.00
2018-09-06T02:26:30.505Z,8.40
2018-09-06T02:27:30.658Z,8.90
2018-09-06T02:28:30.809Z,8.50
2018-09-06T02:29:30.960Z,8.20
2018-09-06T02:30:31.115Z,9.10
2018-09-06T02:31:31.265Z,9.00
2018-09-06T02:32:31.419Z,8.80
2018-09-06T02:33:31.573Z,8.50
2018-09-06T02:34:31.723Z,8.50
2018-09-06T02:35:31.876Z,8.90
2018-09-06T02:36:32.032Z,8.70
2018-09-06T02:37:32.183Z,8.70
2018-09-06T02:38:32.335Z,9.00
2018-09-06T02:39:32.489Z,9.00
2018-09-06T02:40:32.641Z,8.60
2018-09-06T02:41:32.793Z,8.30
2018-09-06T02:42:32.947Z,8.30
2018-09-06T02:43:33.099Z,8.10
2018-09-06T02:44:33.257Z,8.30
2018-09-06T02:45:33.417Z,8.70
2018-09-06T02:46:33.561Z,9.60
2018-09-06T02:47:33.713Z,8.70
2018-09-06T02:48:33.867Z,9.00
2018-09-06T02:49:34.021Z,9.30
2018-09-06T02:50:34.172Z,8.60
2018-09-06T02:51:34.326Z,8.90
2018-09-06T02:52:34.478Z,8.70
2018-09-06T02:53:34.632Z,9.10
2018-09-06T02:54:34.786Z,8.20
2018-09-06T02:55:34.949Z,8.30
2018-09-06T02:56:35.083Z,9.00
2018-09-06T02:57:35.236Z,8.60
2018-09-06T02:58:35.389Z,8.80
2018-09-06T02:59:35.545Z,8.30
2018-09-06T03:00:35.699Z,9.00
2018-09-06T03:01:35.855Z,9.20
2018-09-06T03:02:36.004Z,9.00
2018-09-06T03:03:36.157Z,9.00
2018-09-06T03:04:36.309Z,8.70
2018-09-06T03:05:36.474Z,9.40
2018-09-06T03:06:36.611Z,8.80
2018-09-06T03:07:36.767Z,9.10
2018-09-06T03:08:36.916Z,9.50
2018-09-06T03:09:37.069Z,8.80
2018-09-06T03:10:37.224Z,9.40
2018-09-06T03:11:37.375Z,9.40
2018-09-06T03:12:37.526Z,9.70
2018-09-06T03:13:37.678Z,9.60
2018-09-06T03:14:37.832Z,9.40
2018-09-06T03:15:37.979Z,9.70
2018-09-06T03:16:38.128Z,8.90
2018-09-06T03:17:38.283Z,9.00
2018-09-06T03:18:38.435Z,9.50
2018-09-06T03:19:38.588Z,9.60
2018-09-06T03:20:38.741Z,9.20
2018-09-06T03:21:38.892Z,9.70
2018-09-06T03:22:39.045Z,9.70
2018-09-06T03:23:39.198Z,9.40
2018-09-06T03:24:39.352Z,9.60
2018-09-06T03:25:39.503Z,9.80
2018-09-06T03:26:39.657Z,9.00
2018-09-06T03:27:39.811Z,9.40
2018-09-06T03:28:39.962Z,9.70
2018-09-06T03:29:40.116Z,9.70
2018-09-06T03:30:40.270Z,9.30
2018-09-06T03:31:40.431Z,9.70
2018-09-06T03:32:40.577Z,9.00
2018-09-06T03:33:40.725Z,9.90
2018-09-06T03:34:40.880Z,9.00
2018-09-06T03:35:41.032Z,9.90
2018-09-06T03:36:41.183Z,9.20
2018-09-06T03:37:41.337Z,9.30
2018-09-06T03:38:41.504Z,10.00
2018-09-06T03:39:41.641Z,9.60
2018-09-06T03:40:41.794Z,9.60
2018-09-06T03:41:41.948Z,10.10
2018-09-06T03:42:42.099Z,10.00
2018-09-06T03:43:42.257Z,9.90
2018-09-06T03:44:42.408Z,10.00
2018-09-06T03:45:42.559Z,9.70
2018-09-06T03:46:42.716Z,9.40
2018-09-06T03:47:42.871Z,9.00
2018-09-06T03:48:43.018Z,9.80
2018-09-06T03:49:43.174Z,9.60
2018-09-06T03:50:43.324Z,9.80
2018-09-06T03:51:43.474Z,9.10
2018-09-06T03:52:43.628Z,9.80
2018-09-06T03:53:43.781Z,9.60
2018-09-06T03:54:43.931Z,9.50
2018-09-06T03:55:44.086Z,9.50
2018-09-06T03:56:44.236Z,9.60
2018-09-06T03:57:44.390Z,9.70
2018-09-06T03:58:44.543Z,9.60
2018-09-06T03:59:44.697Z,9.40
2018-09-06T04:00:44.847Z,9.50
2018-09-06T04:01:45.000Z,9.20
2018-09-06T04:02:45.152Z,8.80
2018-09-06T04:03:45.305Z,9.20
2018-09-06T04:04:45.457Z,9.30
2018-09-06T04:05:45.607Z,9.00
2018-09-06T04:06:45.762Z,8.90
2018-09-06T04:07:45.914Z,9.40
2018-09-06T04:08:46.065Z,9.30
2018-09-06T04:09:46.216Z,10.00
2018-09-06T04:10:46.375Z,9.50
2018-09-06T04:11:46.525Z,10.10
2018-09-06T04:12:46.686Z,9.40
2018-09-06T04:13:46.829Z,9.20
2018-09-06T04:14:46.981Z,9.80
2018-09-06T04:15:47.133Z,9.10
2018-09-06T04:16:47.291Z,9.00
2018-09-06T04:17:47.435Z,9.60
2018-09-06T04:18:47.589Z,9.40
2018-09-06T04:19:47.741Z,9.60
2018-09-06T04:20:47.894Z,9.20
2018-09-06T04:21:48.044Z,9.50
2018-09-06T04:22:48.203Z,9.40
2018-09-06T04:23:48.349Z,8.90
2018-09-06T04:24:48.500Z,9.10
2018-09-06T04:25:48.656Z,9.40
2018-09-06T04:26:48.806Z,9.40
2018-09-06T04:27:48.960Z,9.40
2018-09-06T04:28:49.113Z,9.70
2018-09-06T04:29:49.267Z,9.50
2018-09-06T04:30:49.424Z,9.30
2018-09-06T04:31:49.572Z,9.80
2018-09-06T04:32:49.724Z,9.70
2018-09-06T04:33:49.878Z,9.10
2018-09-06T04:34:50.034Z,9.60
2018-09-06T04:35:50.186Z,9.80
2018-09-06T04:36:50.339Z,9.30
2018-09-06T04:37:50.493Z,9.50
2018-09-06T04:38:50.647Z,9.60
2018-09-06T04:39:50.802Z,9.40
2018-09-06T04:40:50.954Z,10.00
2018-09-06T04:41:51.107Z,10.00
2018-09-06T04:42:51.260Z,9.90
2018-09-06T04:43:51.451Z,9.70
2018-09-06T04:44:51.568Z,10.20
2018-09-06T04:45:51.716Z,10.00
2018-09-06T04:46:51.870Z,9.40
2018-09-06T04:47:52.020Z,9.70
2018-09-06T04:48:52.174Z,9.60
2018-09-06T04:49:52.327Z,9.90
2018-09-06T04:50:52.482Z,9.60
2018-09-06T04:51:52.638Z,9.80
2018-09-06T04:52:52.790Z,9.20
2018-09-06T04:53:52.937Z,9.00
2018-09-06T04:54:53.093Z,9.40
2018-09-06T04:55:53.247Z,9.70
2018-09-06T04:56:53.395Z,9.10
2018-09-06T04:57:53.550Z,9.60
2018-09-06T04:58:53.704Z,9.50
2018-09-06T04:59:53.859Z,9.30
2018-09-06T05:00:54.014Z,9.40
2018-09-06T05:01:54.163Z,9.50
2018-09-06T05:02:54.313Z,9.40
2018-09-06T05:03:54.468Z,9.60
2018-09-06T05:04:54.621Z,10.00
2018-09-06T05:05:54.773Z,9.60
2018-09-06T05:06:54.925Z,9.70
2018-09-06T05:07:55.077Z,9.20
2018-09-06T05:08:55.230Z,9.70
2018-09-06T05:09:55.383Z,10.30
2018-09-06T05:10:55.535Z,9.70
2018-09-06T05:11:55.693Z,10.20
2018-09-06T05:12:55.841Z,9.50
2018-09-06T05:13:55.993Z,9.90
2018-09-06T05:14:56.144Z,10.00
2018-09-06T05:15:56.299Z,9.60
2018-09-06T05:16:56.456Z,9.80
2018-09-06T05:17:56.605Z,9.90
2018-09-06T05:18:56.755Z,9.90
2018-09-06T05:19:56.908Z,9.70
2018-09-06T05:20:57.063Z,9.30
2018-09-06T05:21:57.227Z,9.50
2018-09-06T05:22:57.369Z,9.70
2018-09-06T05:23:57.522Z,10.00
2018-09-06T05:24:57.673Z,10.20
2018-09-06T05:25:57.826Z,10.10
2018-09-06T05:26:57.981Z,10.30
2018-09-06T05:27:58.133Z,9.40
2018-09-06T05:28:58.286Z,10.30
2018-09-06T05:29:58.438Z,10.30
2018-09-06T05:30:58.594Z,9.80
2018-09-06T05:31:58.747Z,10.20
2018-09-06T05:32:58.906Z,9.80
2018-09-06T05:33:59.047Z,10.10
2018-09-06T05:34:59.236Z,9.90
2018-09-06T05:35:59.365Z,10.10
2018-09-06T05:36:59.509Z,11.00
2018-09-06T05:37:59.662Z,9.50
2018-09-06T05:38:59.814Z,10.20
2018-09-06T05:39:59.968Z,10.30
2018-09-06T05:41:00.121Z,9.70
2018-09-06T05:42:00.276Z,10.80
2018-09-06T05:43:00.430Z,10.10
2018-09-06T05:44:00.582Z,9.80
2018-09-06T05:45:00.738Z,9.90
2018-09-06T05:46:00.888Z,10.40
2018-09-06T05:47:01.042Z,10.10
2018-09-06T05:48:01.191Z,10.30
2018-09-06T05:49:01.345Z,9.90
2018-09-06T05:50:01.497Z,10.20
2018-09-06T05:51:01.653Z,9.70
2018-09-06T05:52:01.806Z,10.00
2018-09-06T05:53:01.964Z,9.40
2018-09-06T05:54:02.113Z,10.50
2018-09-06T05:55:02.264Z,9.70
2018-09-06T05:56:02.417Z,9.90
2018-09-06T05:57:02.571Z,10.00
2018-09-06T05:58:02.746Z,9.10
2018-09-06T05:59:02.878Z,10.30
2018-09-06T06:00:03.108Z,9.90
2018-09-06T06:01:03.188Z,9.90
2018-09-06T06:02:03.339Z,10.20
2018-09-06T06:03:03.497Z,9.90
2018-09-06T06:04:03.647Z,10.50
2018-09-06T06:05:03.802Z,10.20
2018-09-06T06:06:03.955Z,10.20
2018-09-06T06:07:04.108Z,10.20
2018-09-06T06:08:04.261Z,10.50
2018-09-06T06:09:04.417Z,10.00
2018-09-06T06:10:04.571Z,11.00
2018-09-06T06:11:04.724Z,11.00
2018-09-06T06:12:04.879Z,10.50
2018-09-06T06:13:05.030Z,10.70
2018-09-06T06:14:05.181Z,11.30
2018-09-06T06:15:05.338Z,10.70
2018-09-06T06:16:05.548Z,10.40
2018-09-06T06:17:05.645Z,10.10
2018-09-06T06:18:05.798Z,10.40
2018-09-06T06:19:05.951Z,10.80
2018-09-06T06:20:06.116Z,11.50
2018-09-06T06:21:06.287Z,12.00
2018-09-06T06:22:06.410Z,11.70
2018-09-06T06:23:06.562Z,10.90
2018-09-06T06:24:06.717Z,10.40
2018-09-06T06:25:06.870Z,10.00
2018-09-06T06:26:07.074Z,12.30
2018-09-06T06:27:07.176Z,12.40
2018-09-06T06:28:07.333Z,11.90
2018-09-06T06:29:07.484Z,12.00
2018-09-06T06:30:07.637Z,11.70
2018-09-06T06:31:07.792Z,12.00
2018-09-06T06:32:07.980Z,11.20
2018-09-06T06:33:08.116Z,11.70
2018-09-06T06:34:08.332Z,10.80
2018-09-06T06:35:08.402Z,10.80
2018-09-06T06:36:08.557Z,10.70
2018-09-06T06:37:08.710Z,10.70
2018-09-06T06:38:08.863Z,10.30
2018-09-06T06:39:09.018Z,10.30
2018-09-06T06:40:09.173Z,10.10
2018-09-06T06:41:09.326Z,10.10
2018-09-06T06:42:09.482Z,9.90
2018-09-06T06:43:09.635Z,9.80
2018-09-06T06:44:09.792Z,10.40
2018-09-06T06:45:09.946Z,9.70
2018-09-06T06:46:10.100Z,10.20
2018-09-06T06:47:10.258Z,9.60
2018-09-06T06:48:10.408Z,9.70
2018-09-06T06:49:10.563Z,10.10
2018-09-06T06:50:10.723Z,9.20
2018-09-06T06:51:10.874Z,10.10
2018-09-06T06:52:11.027Z,10.80
2018-09-06T06:53:11.181Z,11.40
2018-09-06T06:54:11.337Z,12.00
2018-09-06T06:55:11.492Z,10.80
2018-09-06T06:56:11.649Z,11.80
2018-09-06T06:57:11.802Z,11.00
2018-09-06T06:58:11.956Z,11.20
2018-09-06T06:59:12.109Z,12.10
2018-09-06T07:00:12.268Z,12.20
2018-09-06T07:01:12.420Z,12.90
2018-09-06T07:02:12.578Z,13.20
2018-09-06T07:03:12.737Z,12.50
2018-09-06T07:04:12.932Z,13.10
2018-09-06T07:05:13.041Z,12.80
2018-09-06T07:06:13.202Z,12.50
2018-09-06T07:07:13.474Z,11.50
2018-09-06T07:08:13.507Z,11.30
2018-09-06T07:09:13.664Z,10.30
2018-09-06T07:10:13.820Z,11.70
2018-09-06T07:11:13.976Z,11.10
2018-09-06T07:12:14.129Z,9.90
2018-09-06T07:13:14.284Z,10.00
2018-09-06T07:14:14.437Z,10.40
2018-09-06T07:15:14.593Z,10.80
2018-09-06T07:16:14.749Z,10.30
2018-09-06T07:17:14.903Z,10.60
2018-09-06T07:18:15.165Z,10.00
2018-09-06T07:19:15.216Z,10.70
2018-09-06T07:20:15.373Z,9.90
2018-09-06T07:21:15.529Z,8.70
2018-09-06T07:22:15.684Z,9.50
2018-09-06T07:23:15.840Z,9.20
2018-09-06T07:24:15.997Z,9.40
2018-09-06T07:25:16.150Z,10.30
2018-09-06T07:26:16.305Z,10.70
2018-09-06T07:27:16.463Z,11.00
2018-09-06T07:28:16.617Z,11.10
2018-09-06T07:29:16.773Z,11.50
2018-09-06T07:30:16.928Z,11.80
2018-09-06T07:31:17.087Z,10.70
2018-09-06T07:32:17.239Z,10.00
2018-09-06T07:33:17.398Z,9.40
2018-09-06T07:34:17.554Z,9.80
2018-09-06T07:35:17.749Z,10.00
2018-09-06T07:36:17.863Z,9.60
2018-09-06T07:37:18.015Z,9.60
2018-09-06T07:38:18.171Z,9.50
2018-09-06T07:39:18.325Z,9.90
2018-09-06T07:40:18.481Z,9.40
2018-09-06T07:41:18.659Z,9.60
2018-09-06T07:42:18.792Z,9.30
2018-09-06T07:43:18.946Z,9.40
2018-09-06T07:44:19.103Z,9.50
2018-09-06T07:45:19.258Z,10.00
2018-09-06T07:46:19.418Z,9.80
2018-09-06T07:47:19.571Z,10.80
2018-09-06T07:48:19.727Z,9.60
2018-09-06T07:49:19.882Z,9.40
2018-09-06T07:50:20.040Z,9.50
2018-09-06T07:51:20.193Z,9.80
2018-09-06T07:52:20.364Z,9.80
2018-09-06T07:53:20.505Z,9.30
2018-09-06T07:54:20.663Z,10.20
2018-09-06T07:55:20.819Z,9.30
2018-09-06T07:56:20.974Z,9.30
2018-09-06T07:57:21.131Z,8.20
2018-09-06T07:58:21.288Z,9.00
2018-09-06T07:59:21.444Z,8.60
2018-09-06T08:00:21.599Z,9.10
2018-09-06T08:01:21.755Z,9.40
2018-09-06T08:02:21.914Z,9.10
2018-09-06T08:03:22.067Z,8.90
2018-09-06T08:04:22.225Z,8.60
2018-09-06T08:05:22.378Z,8.20
2018-09-06T08:06:22.536Z,9.40
2018-09-06T08:07:22.693Z,8.70
2018-09-06T08:08:22.851Z,9.10
2018-09-06T08:09:23.008Z,10.30
2018-09-06T08:10:23.162Z,9.60
2018-09-06T08:11:23.319Z,9.60
2018-09-06T08:12:23.477Z,9.10
2018-09-06T08:13:23.632Z,9.20
2018-09-06T08:14:23.789Z,9.60
2018-09-06T08:15:23.943Z,9.90
2018-09-06T08:16:24.098Z,9.40
2018-09-06T08:17:24.256Z,9.60
2018-09-06T08:18:24.411Z,9.30
2018-09-06T08:19:24.570Z,9.80
2018-09-06T08:20:24.725Z,9.60
2018-09-06T08:21:24.883Z,9.80
2018-09-06T08:22:25.044Z,9.30
2018-09-06T08:23:25.203Z,9.30
2018-09-06T08:24:25.445Z,9.70
2018-09-06T08:25:25.511Z,8.90
2018-09-06T08:26:25.668Z,9.40
2018-09-06T08:27:25.828Z,9.20
2018-09-06T08:28:25.982Z,9.30
2018-09-06T08:29:26.137Z,9.40
2018-09-06T08:30:26.349Z,8.40
2018-09-06T08:31:26.483Z,9.40
2018-09-06T08:32:26.610Z,9.00
2018-09-06T08:33:26.763Z,9.10
2018-09-06T08:34:26.919Z,8.70
2018-09-06T08:35:27.078Z,8.50
2018-09-06T08:36:27.235Z,9.00
2018-09-06T08:37:27.393Z,9.00
2018-09-06T08:38:27.551Z,8.90
2018-09-06T08:39:27.706Z,9.50
2018-09-06T08:40:27.865Z,9.20
2018-09-06T08:41:28.020Z,9.20
2018-09-06T08:42:28.177Z,8.80
2018-09-06T08:43:28.333Z,8.90
2018-09-06T08:44:28.491Z,8.80
2018-09-06T08:45:28.693Z,8.70
2018-09-06T08:46:28.809Z,9.30
2018-09-06T08:47:28.980Z,8.80
2018-09-06T08:48:29.127Z,9.30
2018-09-06T08:49:29.282Z,8.60
2018-09-06T08:50:29.442Z,8.60
2018-09-06T08:51:29.599Z,8.70
2018-09-06T08:52:29.781Z,9.40
2018-09-06T08:53:29.917Z,8.60
2018-09-06T08:54:30.070Z,8.70
2018-09-06T08:55:30.230Z,8.00
2018-09-06T08:56:30.388Z,8.00
2018-09-06T08:57:30.556Z,8.30
2018-09-06T08:58:30.728Z,8.50
2018-09-06T08:59:30.874Z,8.30
2018-09-06T09:00:31.034Z,7.80
2018-09-06T09:01:31.193Z,8.30
2018-09-06T09:02:31.358Z,7.90
2018-09-06T09:03:31.510Z,8.50
2018-09-06T09:04:31.679Z,8.50
2018-09-06T09:05:31.831Z,8.60
2018-09-06T09:06:31.992Z,9.30
2018-09-06T09:07:32.189Z,9.50
2018-09-06T09:08:32.372Z,9.40
2018-09-06T09:09:32.476Z,8.80
2018-09-06T09:10:32.631Z,8.50
2018-09-06T09:11:32.787Z,7.80
2018-09-06T09:12:32.963Z,8.90
2018-09-06T09:13:33.107Z,8.40
2018-09-06T09:14:33.274Z,8.50
2018-09-06T09:15:33.430Z,8.50
2018-09-06T09:16:33.592Z,8.40
2018-09-06T09:17:33.750Z,8.10
2018-09-06T09:18:33.917Z,7.70
2018-09-06T09:19:34.076Z,8.10
2018-09-06T09:20:34.239Z,8.10
2018-09-06T09:21:34.447Z,8.40
2018-09-06T09:22:34.564Z,8.00
2018-09-06T09:23:34.721Z,8.10
2018-09-06T09:24:34.880Z,8.20
2018-09-06T09:25:35.111Z,8.40
2018-09-06T09:26:35.200Z,8.00
2018-09-06T09:27:35.361Z,8.00
2018-09-06T09:28:35.525Z,7.60
2018-09-06T09:29:35.685Z,7.70
2018-09-06T09:30:35.903Z,7.60
2018-09-06T09:31:36.003Z,8.50
2018-09-06T09:32:36.166Z,8.50
2018-09-06T09:33:36.321Z,8.30
2018-09-06T09:34:36.485Z,8.20
2018-09-06T09:35:36.643Z,8.00
2018-09-06T09:36:36.809Z,8.00
2018-09-06T09:37:36.964Z,8.30
2018-09-06T09:38:37.125Z,7.80
2018-09-06T09:39:37.285Z,8.30
2018-09-06T09:40:37.444Z,7.80
2018-09-06T09:41:37.605Z,9.10
2018-09-06T09:42:37.766Z,7.90
2018-09-06T09:43:37.926Z,8.60
2018-09-06T09:44:38.088Z,8.80
2018-09-06T09:45:38.249Z,8.90
2018-09-06T09:48:11.479Z,8.70
2018-09-06T09:49:11.636Z,9.00
2018-09-06T09:51:44.841Z,8.00
2018-09-06T09:52:45.001Z,7.90
2018-09-06T09:53:45.163Z,7.60
2018-09-06T09:54:45.327Z,8.00
2018-09-06T09:55:45.484Z,7.60
2018-09-06T09:56:45.644Z,7.80
2018-09-06T09:57:45.808Z,7.60
2018-09-06T09:58:45.963Z,7.40
2018-09-06T09:59:46.126Z,7.60
2018-09-06T10:00:46.288Z,7.70
2018-09-06T10:01:46.449Z,8.10
2018-09-06T10:02:46.608Z,8.00
2018-09-06T10:03:46.824Z,8.30
2018-09-06T10:04:46.925Z,7.90
2018-09-06T10:05:47.089Z,7.70
2018-09-06T10:06:47.255Z,8.10
2018-09-06T10:07:47.410Z,8.10
2018-09-06T10:08:47.572Z,7.30
2018-09-06T10:09:47.731Z,8.10
2018-09-06T10:10:47.892Z,9.30
2018-09-06T10:11:48.054Z,8.90
2018-09-06T10:12:48.212Z,8.20
2018-09-06T10:13:48.372Z,7.90
2018-09-06T10:14:48.533Z,9.80
2018-09-06T10:15:48.695Z,9.50
2018-09-06T10:16:48.857Z,9.70
2018-09-06T10:17:49.017Z,9.30
2018-09-06T10:18:49.178Z,9.50
2018-09-06T10:19:49.336Z,8.90
2018-09-06T10:20:49.497Z,9.00
2018-09-06T10:21:49.659Z,8.50
2018-09-06T10:22:49.819Z,8.00
2018-09-06T10:23:49.979Z,8.60
2018-09-06T10:24:50.139Z,8.20
2018-09-06T10:25:50.301Z,9.00
2018-09-06T10:26:50.466Z,9.10
2018-09-06T10:27:50.628Z,9.00
2018-09-06T10:28:50.786Z,7.90
2018-09-06T10:29:50.950Z,7.90
2018-09-06T10:30:51.111Z,8.80
2018-09-06T10:31:51.271Z,8.80
2018-09-06T10:32:51.432Z,9.00
2018-09-06T10:33:51.595Z,8.80
2018-09-06T10:34:51.754Z,8.30
2018-09-06T10:35:51.915Z,8.30
2018-09-06T10:36:52.077Z,8.30
2018-09-06T10:37:52.236Z,8.20
2018-09-06T10:38:52.398Z,7.60
2018-09-06T10:39:52.614Z,7.90
2018-09-06T10:40:52.717Z,8.10
2018-09-06T10:41:52.876Z,7.40
2018-09-06T10:42:53.043Z,8.60
2018-09-06T10:43:53.199Z,7.80
2018-09-06T10:44:53.362Z,8.50
2018-09-06T10:45:53.521Z,7.80
2018-09-06T10:46:53.684Z,8.40
2018-09-06T10:47:53.884Z,8.20
2018-09-06T10:48:54.009Z,7.90
2018-09-06T10:49:54.166Z,7.70
2018-09-06T10:50:54.326Z,8.10
2018-09-06T10:51:54.489Z,8.60
2018-09-06T10:52:54.649Z,8.80
2018-09-06T10:53:54.810Z,8.10
2018-09-06T10:54:54.976Z,7.60
2018-09-06T10:55:55.140Z,8.10
2018-09-06T10:56:55.302Z,8.00
2018-09-06T10:57:55.463Z,7.80
2018-09-06T10:58:55.625Z,7.90
2018-09-06T10:59:55.788Z,7.80
2018-09-06T11:00:55.946Z,7.80
2018-09-06T11:01:56.108Z,7.90
2018-09-06T11:02:56.268Z,8.00
2018-09-06T11:03:56.427Z,8.10
2018-09-06T11:04:56.591Z,7.70
2018-09-06T11:05:56.754Z,7.60
2018-09-06T11:06:56.912Z,7.90
2018-09-06T11:07:57.100Z,7.50
2018-09-06T11:08:57.233Z,7.80
2018-09-06T11:09:57.397Z,8.30
2018-09-06T11:10:57.557Z,8.30
2018-09-06T11:11:57.727Z,8.60
2018-09-06T11:12:57.884Z,8.00
2018-09-06T11:13:58.044Z,8.20
2018-09-06T11:14:58.220Z,7.70
2018-09-06T11:15:58.369Z,8.20
2018-09-06T11:16:58.530Z,7.70
2018-09-06T11:17:58.722Z,7.60
2018-09-06T11:18:58.850Z,7.70
2018-09-06T11:19:59.024Z,9.00
2018-09-06T11:20:59.180Z,7.90
2018-09-06T11:21:59.375Z,7.90
2018-09-06T11:22:59.507Z,8.20
2018-09-06T11:23:59.662Z,8.10
2018-09-06T11:24:59.827Z,8.50
2018-09-06T11:25:59.982Z,8.00
2018-09-06T11:27:00.144Z,8.10
2018-09-06T11:28:00.353Z,8.00
2018-09-06T11:29:00.471Z,8.00
2018-09-06T11:30:00.630Z,8.00
2018-09-06T11:31:00.798Z,7.80
2018-09-06T11:32:00.960Z,7.60
2018-09-06T11:33:01.126Z,7.80
2018-09-06T11:34:01.289Z,8.10
2018-09-06T11:35:01.451Z,7.60
2018-09-06T11:36:01.611Z,8.20
2018-09-06T11:37:01.771Z,8.30
2018-09-06T11:38:01.933Z,8.10
2018-09-06T11:39:02.098Z,8.00
2018-09-06T11:40:02.312Z,7.70
2018-09-06T11:41:02.419Z,7.60
2018-09-06T11:42:02.631Z,7.90
2018-09-06T11:43:02.745Z,7.90
2018-09-06T11:44:02.908Z,7.90
2018-09-06T11:45:03.083Z,7.90
2018-09-06T11:46:03.231Z,8.00
2018-09-06T11:47:03.506Z,7.40
2018-09-06T11:48:03.556Z,7.60
2018-09-06T11:49:03.716Z,7.60
2018-09-06T11:50:03.883Z,8.20
2018-09-06T11:51:04.045Z,7.80
2018-09-06T11:52:04.206Z,7.90
2018-09-06T11:53:04.367Z,7.80
2018-09-06T11:54:04.532Z,7.80
2018-09-06T11:55:04.696Z,8.00
2018-09-06T11:56:04.859Z,7.80
2018-09-06T11:57:05.022Z,8.00
2018-09-06T11:58:05.217Z,8.00
2018-09-06T11:59:05.346Z,8.60
2018-09-06T12:00:05.508Z,7.60
2018-09-06T12:01:05.673Z,7.60
2018-09-06T12:02:05.852Z,7.10
2018-09-06T12:03:05.995Z,7.60
2018-09-06T12:04:06.157Z,6.50
2018-09-06T12:05:06.318Z,6.70
2018-09-06T12:06:06.511Z,6.60
2018-09-06T12:07:06.652Z,6.70
2018-09-06T12:08:06.803Z,7.10
2018-09-06T12:09:06.962Z,7.00
2018-09-06T12:10:07.124Z,7.60
2018-09-06T12:11:07.282Z,6.80
2018-09-06T12:12:07.451Z,7.80
2018-09-06T12:13:07.614Z,7.70
2018-09-06T12:14:07.774Z,7.20
2018-09-06T12:15:07.943Z,8.00
2018-09-06T12:16:08.121Z,8.10
2018-09-06T12:17:08.261Z,7.60
2018-09-06T12:18:08.428Z,7.80
2018-09-06T12:19:08.587Z,8.30
2018-09-06T12:20:08.748Z,7.70
2018-09-06T12:21:08.908Z,8.60
2018-09-06T12:22:09.069Z,8.40
2018-09-06T12:23:09.228Z,8.10
2018-09-06T12:24:09.392Z,8.50
2018-09-06T12:25:09.557Z,7.70
2018-09-06T12:26:09.712Z,8.00
2018-09-06T12:27:09.873Z,8.70
2018-09-06T12:28:10.034Z,8.30
2018-09-06T12:29:10.196Z,8.20
2018-09-06T12:30:10.357Z,8.20
2018-09-06T12:31:10.513Z,8.20
2018-09-06T12:32:10.685Z,7.80
2018-09-06T12:33:10.863Z,8.10
2018-09-06T12:34:10.988Z,8.70
2018-09-06T12:35:11.146Z,8.90
2018-09-06T12:36:11.306Z,8.70
2018-09-06T12:37:11.467Z,8.10
2018-09-06T12:38:11.620Z,9.10
2018-09-06T12:39:11.784Z,8.10
2018-09-06T12:40:11.940Z,9.10
2018-09-06T12:41:12.098Z,8.60
2018-09-06T12:42:12.257Z,8.00
2018-09-06T12:43:12.414Z,9.30
2018-09-06T12:44:12.573Z,9.30
2018-09-06T12:45:12.732Z,9.30
2018-09-06T12:46:12.892Z,8.80
2018-09-06T12:47:13.048Z,9.10
2018-09-06T12:48:13.207Z,8.90
2018-09-06T12:49:13.364Z,9.10
2018-09-06T12:50:13.522Z,8.30
2018-09-06T12:51:13.681Z,7.90
2018-09-06T12:52:13.837Z,7.90
2018-09-06T12:53:13.996Z,7.30
2018-09-06T12:54:14.163Z,7.80
2018-09-06T12:55:14.325Z,7.90
2018-09-06T12:56:14.483Z,7.70
2018-09-06T12:57:14.640Z,7.50
2018-09-06T12:58:14.797Z,7.70
2018-09-06T12:59:14.957Z,7.80
2018-09-06T13:00:15.113Z,6.90
2018-09-06T13:01:15.273Z,7.30
2018-09-06T13:02:15.430Z,7.80
2018-09-06T13:03:15.592Z,7.00
2018-09-06T13:04:15.750Z,6.80
2018-09-06T13:05:15.907Z,7.50
2018-09-06T13:06:16.068Z,8.50
2018-09-06T13:07:16.226Z,7.90
2018-09-06T13:08:16.381Z,7.20
2018-09-06T13:09:16.539Z,7.30
2018-09-06T13:10:16.702Z,7.80
2018-09-06T13:11:16.865Z,7.30
2018-09-06T13:12:17.020Z,7.40
2018-09-06T13:13:17.181Z,8.20
2018-09-06T13:14:17.337Z,7.60
2018-09-06T13:15:17.537Z,7.50
2018-09-06T13:16:17.652Z,7.70
2018-09-06T13:17:17.812Z,7.50
2018-09-06T13:18:18.035Z,7.80
2018-09-06T13:19:18.127Z,7.30